Bluewell, West Virginia
Current Conditions -  °F | °C
As of 7:13 PM on Thursday 27 Nov 2014 (Local Time) from KBLF Reporting Station
Light Snow Light Snow  
Wind Chill: 16°   Ceiling: 3600
Heat Index: 26°   Visibility: 9mi
Dew Point: 18°   Wind: 12mph
Humidity: 71%   Direction: 290°WNW
Pressure: 30.2"   Gusts: 24mph
Location:  37.2994°N, 81.226°W
Report Text: KBLF 280013Z AUTO 29010G21KT 9SM -SN FEW014 SCT020 OVC036 M03/M08 A3020 RMK AO2 SNE01B07 P0000 T10331078 $
Loading
Personal Weather Stations






























Interactive Weather Map New forecast layout! Learn more

10-Day Weather Forecast

Advertisements
Track Severe Weather on mobile